sensor_id;sensor_type;location;lat;lon;timestamp;pressure;altitude;pressure_sealevel;temperature;humidity
40850;BME280;26571;41.610;25.380;2022-10-31T00:02:02;98645.25;;;11.56;59.47
40850;BME280;26571;41.610;25.380;2022-10-31T00:04:27;98642.59;;;11.56;59.28
40850;BME280;26571;41.610;25.380;2022-10-31T00:06:52;98643.78;;;11.46;59.72
40850;BME280;26571;41.610;25.380;2022-10-31T00:09:18;98648.38;;;11.44;59.30
40850;BME280;26571;41.610;25.380;2022-10-31T00:11:43;98652.34;;;11.39;59.44
40850;BME280;26571;41.610;25.380;2022-10-31T00:14:09;98638.81;;;11.43;59.19
40850;BME280;26571;41.610;25.380;2022-10-31T00:16:34;98648.38;;;11.44;59.18
40850;BME280;26571;41.610;25.380;2022-10-31T00:19:02;98645.75;;;11.44;59.57
40850;BME280;26571;41.610;25.380;2022-10-31T00:21:28;98640.47;;;11.44;58.78
40850;BME280;26571;41.610;25.380;2022-10-31T00:23:54;98643.31;;;11.34;59.46
40850;BME280;26571;41.610;25.380;2022-10-31T00:26:20;98641.97;;;11.30;59.67
40850;BME280;26571;41.610;25.380;2022-10-31T00:28:45;98640.66;;;11.26;59.66
40850;BME280;26571;41.610;25.380;2022-10-31T00:31:12;98634.06;;;11.22;59.94
40850;BME280;26571;41.610;25.380;2022-10-31T00:33:38;98632.59;;;11.27;60.43
40850;BME280;26571;41.610;25.380;2022-10-31T00:36:06;98632.25;;;11.22;60.50
40850;BME280;26571;41.610;25.380;2022-10-31T00:38:32;98636.72;;;11.22;60.53
40850;BME280;26571;41.610;25.380;2022-10-31T00:40:58;98643.78;;;11.21;60.09
40850;BME280;26571;41.610;25.380;2022-10-31T00:43:23;98638.38;;;11.15;60.32
40850;BME280;26571;41.610;25.380;2022-10-31T00:45:49;98634.59;;;11.09;60.32
40850;BME280;26571;41.610;25.380;2022-10-31T00:48:14;98632.75;;;11.01;60.45
40850;BME280;26571;41.610;25.380;2022-10-31T00:50:40;98637.53;;;10.98;60.43
40850;BME280;26571;41.610;25.380;2022-10-31T00:53:06;98627.28;;;10.78;60.76
40850;BME280;26571;41.610;25.380;2022-10-31T00:55:31;98630.91;;;10.77;61.25
40850;BME280;26571;41.610;25.380;2022-10-31T00:57:57;98619.38;;;10.62;62.04
40850;BME280;26571;41.610;25.380;2022-10-31T01:00:22;98634.84;;;10.73;62.12
40850;BME280;26571;41.610;25.380;2022-10-31T01:02:48;98640.97;;;10.82;62.06
40850;BME280;26571;41.610;25.380;2022-10-31T01:05:13;98637.00;;;10.78;61.95
40850;BME280;26571;41.610;25.380;2022-10-31T01:07:40;98633.88;;;10.82;61.44
40850;BME280;26571;41.610;25.380;2022-10-31T01:10:07;98655.28;;;10.79;61.34
40850;BME280;26571;41.610;25.380;2022-10-31T01:12:40;98642.78;;;10.81;61.29
40850;BME280;26571;41.610;25.380;2022-10-31T01:15:06;98636.53;;;10.74;61.26
40850;BME280;26571;41.610;25.380;2022-10-31T01:17:32;98646.88;;;10.76;61.83
40850;BME280;26571;41.610;25.380;2022-10-31T01:19:58;98630.59;;;10.72;61.86
40850;BME280;26571;41.610;25.380;2022-10-31T01:22:23;98639.78;;;10.60;62.18
40850;BME280;26571;41.610;25.380;2022-10-31T01:24:48;98626.72;;;10.42;62.58
40850;BME280;26571;41.610;25.380;2022-10-31T01:27:14;98635.09;;;10.29;63.44
40850;BME280;26571;41.610;25.380;2022-10-31T01:29:39;98631.41;;;10.22;64.20
40850;BME280;26571;41.610;25.380;2022-10-31T01:32:05;98638.97;;;10.17;64.64
40850;BME280;26571;41.610;25.380;2022-10-31T01:34:30;98635.03;;;10.21;64.16
40850;BME280;26571;41.610;25.380;2022-10-31T01:36:56;98631.81;;;10.35;64.27
40850;BME280;26571;41.610;25.380;2022-10-31T01:39:21;98618.84;;;10.42;63.51
40850;BME280;26571;41.610;25.380;2022-10-31T01:41:52;98620.34;;;10.45;63.70
40850;BME280;26571;41.610;25.380;2022-10-31T01:49:38;98625.56;;;10.37;63.49
40850;BME280;26571;41.610;25.380;2022-10-31T01:52:24;98620.06;;;10.22;63.89
40850;BME280;26571;41.610;25.380;2022-10-31T01:54:56;98626.97;;;10.23;64.28
40850;BME280;26571;41.610;25.380;2022-10-31T01:57:23;98626.31;;;10.21;64.52
40850;BME280;26571;41.610;25.380;2022-10-31T01:59:53;98622.03;;;10.20;64.71
40850;BME280;26571;41.610;25.380;2022-10-31T02:02:20;98638.56;;;10.30;64.53
40850;BME280;26571;41.610;25.380;2022-10-31T02:04:47;98636.25;;;10.35;64.09
40850;BME280;26571;41.610;25.380;2022-10-31T02:07:25;98635.59;;;10.33;64.26
40850;BME280;26571;41.610;25.380;2022-10-31T02:09:53;98642.00;;;10.30;63.92
40850;BME280;26571;41.610;25.380;2022-10-31T02:12:18;98610.31;;;10.06;63.78
40850;BME280;26571;41.610;25.380;2022-10-31T02:14:46;98642.25;;;10.19;63.96
40850;BME280;26571;41.610;25.380;2022-10-31T02:17:11;98650.13;;;10.11;64.51
40850;BME280;26571;41.610;25.380;2022-10-31T02:28:10;98658.66;;;10.13;65.63
40850;BME280;26571;41.610;25.380;2022-10-31T02:41:32;98657.31;;;10.35;64.10
40850;BME280;26571;41.610;25.380;2022-10-31T02:44:21;98656.16;;;10.38;64.25
40850;BME280;26571;41.610;25.380;2022-10-31T02:46:50;98654.22;;;10.40;64.21
40850;BME280;26571;41.610;25.380;2022-10-31T02:51:48;98659.78;;;10.37;64.35
40850;BME280;26571;41.610;25.380;2022-10-31T02:54:25;98671.31;;;10.44;64.08
40850;BME280;26571;41.610;25.380;2022-10-31T02:56:56;98676.22;;;10.39;64.37
40850;BME280;26571;41.610;25.380;2022-10-31T02:59:24;98661.75;;;10.34;64.49
40850;BME280;26571;41.610;25.380;2022-10-31T03:04:45;98663.44;;;10.52;64.23
40850;BME280;26571;41.610;25.380;2022-10-31T03:07:21;98658.69;;;10.55;64.07
40850;BME280;26571;41.610;25.380;2022-10-31T03:15:17;98663.47;;;10.60;63.95
40850;BME280;26571;41.610;25.380;2022-10-31T03:20:20;98675.00;;;10.67;64.07
40850;BME280;26571;41.610;25.380;2022-10-31T03:22:48;98649.97;;;10.63;64.28
40850;BME280;26571;41.610;25.380;2022-10-31T03:25:14;98664.63;;;10.74;64.01
40850;BME280;26571;41.610;25.380;2022-10-31T03:27:42;98631.03;;;10.51;63.94
40850;BME280;26571;41.610;25.380;2022-10-31T03:30:09;98669.75;;;10.75;64.50
40850;BME280;26571;41.610;25.380;2022-10-31T03:35:06;98674.34;;;10.65;63.78
40850;BME280;26571;41.610;25.380;2022-10-31T03:37:35;98677.94;;;10.56;63.89
40850;BME280;26571;41.610;25.380;2022-10-31T03:40:03;98640.59;;;10.10;64.34
40850;BME280;26571;41.610;25.380;2022-10-31T03:42:34;98680.47;;;10.31;64.72
40850;BME280;26571;41.610;25.380;2022-10-31T03:45:11;98685.09;;;10.29;65.27
40850;BME280;26571;41.610;25.380;2022-10-31T03:47:38;98666.25;;;10.16;65.09
40850;BME280;26571;41.610;25.380;2022-10-31T03:50:06;98689.94;;;10.16;65.43
40850;BME280;26571;41.610;25.380;2022-10-31T03:52:37;98687.09;;;10.09;65.73
40850;BME280;26571;41.610;25.380;2022-10-31T04:00:21;98669.22;;;9.87;65.74
40850;BME280;26571;41.610;25.380;2022-10-31T04:02:53;98687.53;;;9.97;66.21
40850;BME280;26571;41.610;25.380;2022-10-31T04:05:19;98703.97;;;9.99;66.66
40850;BME280;26571;41.610;25.380;2022-10-31T04:07:48;98682.91;;;9.99;66.41
40850;BME280;26571;41.610;25.380;2022-10-31T04:10:16;98695.13;;;10.00;66.58
40850;BME280;26571;41.610;25.380;2022-10-31T04:12:49;98683.97;;;10.06;66.76
40850;BME280;26571;41.610;25.380;2022-10-31T04:15:19;98697.47;;;10.11;66.79
40850;BME280;26571;41.610;25.380;2022-10-31T04:17:47;98689.41;;;10.13;67.10
40850;BME280;26571;41.610;25.380;2022-10-31T04:20:18;98710.16;;;10.16;67.29
40850;BME280;26571;41.610;25.380;2022-10-31T04:22:44;98696.19;;;10.15;67.22
40850;BME280;26571;41.610;25.380;2022-10-31T04:25:09;98705.53;;;10.18;67.68
40850;BME280;26571;41.610;25.380;2022-10-31T04:27:34;98689.94;;;10.16;67.62
40850;BME280;26571;41.610;25.380;2022-10-31T04:30:00;98694.84;;;10.19;67.57
40850;BME280;26571;41.610;25.380;2022-10-31T04:32:25;98669.53;;;10.10;67.44
40850;BME280;26571;41.610;25.380;2022-10-31T04:34:51;98688.38;;;10.31;66.84
40850;BME280;26571;41.610;25.380;2022-10-31T04:37:16;98698.25;;;10.38;66.81
40850;BME280;26571;41.610;25.380;2022-10-31T04:39:42;98695.97;;;10.34;66.77
40850;BME280;26571;41.610;25.380;2022-10-31T04:42:07;98729.41;;;10.50;66.22
40850;BME280;26571;41.610;25.380;2022-10-31T04:44:32;98707.53;;;10.50;66.45
40850;BME280;26571;41.610;25.380;2022-10-31T04:46:58;98704.09;;;10.57;65.98
40850;BME280;26571;41.610;25.380;2022-10-31T04:49:23;98709.53;;;10.64;65.60
40850;BME280;26571;41.610;25.380;2022-10-31T04:51:49;98714.81;;;10.64;65.52
40850;BME280;26571;41.610;25.380;2022-10-31T04:54:14;98719.75;;;10.67;65.19
40850;BME280;26571;41.610;25.380;2022-10-31T04:56:40;98700.16;;;10.61;65.30
40850;BME280;26571;41.610;25.380;2022-10-31T04:59:05;98707.94;;;10.71;65.10
40850;BME280;26571;41.610;25.380;2022-10-31T05:01:31;98720.78;;;10.74;64.80
40850;BME280;26571;41.610;25.380;2022-10-31T05:03:56;98723.41;;;10.74;65.37
40850;BME280;26571;41.610;25.380;2022-10-31T05:06:21;98729.16;;;10.78;64.87
40850;BME280;26571;41.610;25.380;2022-10-31T05:08:47;98738.22;;;10.83;64.58
40850;BME280;26571;41.610;25.380;2022-10-31T05:11:12;98710.25;;;10.74;63.98
40850;BME280;26571;41.610;25.380;2022-10-31T05:13:38;98728.19;;;10.71;63.78
40850;BME280;26571;41.610;25.380;2022-10-31T05:16:03;98729.66;;;10.73;64.02
40850;BME280;26571;41.610;25.380;2022-10-31T05:18:29;98735.38;;;10.60;64.05
40850;BME280;26571;41.610;25.380;2022-10-31T05:20:54;98740.94;;;10.57;64.45
40850;BME280;26571;41.610;25.380;2022-10-31T05:23:20;98726.28;;;10.47;64.35
40850;BME280;26571;41.610;25.380;2022-10-31T05:25:45;98743.75;;;10.56;64.70
40850;BME280;26571;41.610;25.380;2022-10-31T05:28:10;98749.31;;;10.53;64.45
40850;BME280;26571;41.610;25.380;2022-10-31T05:30:36;98745.69;;;10.54;64.23
40850;BME280;26571;41.610;25.380;2022-10-31T05:33:01;98750.97;;;10.54;63.85
40850;BME280;26571;41.610;25.380;2022-10-31T05:35:29;98757.84;;;10.47;64.38
40850;BME280;26571;41.610;25.380;2022-10-31T05:37:55;98757.56;;;10.58;64.84
40850;BME280;26571;41.610;25.380;2022-10-31T05:40:23;98763.91;;;10.81;64.77
40850;BME280;26571;41.610;25.380;2022-10-31T05:42:51;98764.25;;;10.86;64.27
40850;BME280;26571;41.610;25.380;2022-10-31T05:45:18;98765.94;;;10.96;63.62
40850;BME280;26571;41.610;25.380;2022-10-31T05:47:51;98746.66;;;10.87;64.06
40850;BME280;26571;41.610;25.380;2022-10-31T05:50:17;98758.84;;;10.96;64.22
40850;BME280;26571;41.610;25.380;2022-10-31T05:52:43;98764.63;;;11.00;64.09
40850;BME280;26571;41.610;25.380;2022-10-31T05:55:08;98776.81;;;11.01;64.11
40850;BME280;26571;41.610;25.380;2022-10-31T05:57:34;98781.91;;;11.02;64.26
40850;BME280;26571;41.610;25.380;2022-10-31T05:59:59;98743.50;;;10.75;64.34
40850;BME280;26571;41.610;25.380;2022-10-31T06:02:25;98782.75;;;11.03;64.05
40850;BME280;26571;41.610;25.380;2022-10-31T06:04:52;98782.44;;;11.06;63.88
40850;BME280;26571;41.610;25.380;2022-10-31T06:07:17;98790.69;;;11.11;63.89
40850;BME280;26571;41.610;25.380;2022-10-31T06:09:42;98799.91;;;11.15;64.30
40850;BME280;26571;41.610;25.380;2022-10-31T06:12:08;98797.97;;;11.25;64.04
40850;BME280;26571;41.610;25.380;2022-10-31T06:14:33;98797.97;;;11.33;63.89
40850;BME280;26571;41.610;25.380;2022-10-31T06:16:58;98799.16;;;11.39;63.96
40850;BME280;26571;41.610;25.380;2022-10-31T06:19:24;98795.19;;;11.43;64.30
40850;BME280;26571;41.610;25.380;2022-10-31T06:21:49;98795.69;;;11.47;63.80
40850;BME280;26571;41.610;25.380;2022-10-31T06:24:15;98804.94;;;11.67;63.16
40850;BME280;26571;41.610;25.380;2022-10-31T06:26:40;98807.22;;;11.78;62.43
40850;BME280;26571;41.610;25.380;2022-10-31T06:29:06;98784.50;;;11.69;62.77
40850;BME280;26571;41.610;25.380;2022-10-31T06:31:32;98798.22;;;11.89;62.77
40850;BME280;26571;41.610;25.380;2022-10-31T06:33:57;98814.22;;;12.04;62.41
40850;BME280;26571;41.610;25.380;2022-10-31T06:36:22;98820.78;;;12.16;62.21
40850;BME280;26571;41.610;25.380;2022-10-31T06:38:48;98814.81;;;12.30;61.22
40850;BME280;26571;41.610;25.380;2022-10-31T06:41:13;98825.88;;;12.34;60.84
40850;BME280;26571;41.610;25.380;2022-10-31T06:43:39;98828.66;;;12.40;60.35
40850;BME280;26571;41.610;25.380;2022-10-31T06:46:05;98829.63;;;12.48;60.60
40850;BME280;26571;41.610;25.380;2022-10-31T06:48:31;98827.84;;;12.48;60.90
40850;BME280;26571;41.610;25.380;2022-10-31T06:51:00;98833.13;;;12.48;60.40
40850;BME280;26571;41.610;25.380;2022-10-31T06:53:27;98830.63;;;12.47;61.27
40850;BME280;26571;41.610;25.380;2022-10-31T06:55:55;98831.75;;;12.52;61.18
40850;BME280;26571;41.610;25.380;2022-10-31T06:58:21;98805.66;;;12.65;61.44
40850;BME280;26571;41.610;25.380;2022-10-31T07:00:46;98834.53;;;13.45;60.28
40850;BME280;26571;41.610;25.380;2022-10-31T07:03:13;98828.81;;;14.40;58.01
40850;BME280;26571;41.610;25.380;2022-10-31T07:05:39;98809.63;;;15.27;53.34
40850;BME280;26571;41.610;25.380;2022-10-31T07:08:06;98819.47;;;16.19;51.42
40850;BME280;26571;41.610;25.380;2022-10-31T07:10:34;98824.66;;;16.90;48.79
40850;BME280;26571;41.610;25.380;2022-10-31T07:13:05;98819.19;;;17.66;46.97
40850;BME280;26571;41.610;25.380;2022-10-31T07:15:34;98805.31;;;18.30;45.06
40850;BME280;26571;41.610;25.380;2022-10-31T07:18:01;98811.59;;;18.82;43.71
40850;BME280;26571;41.610;25.380;2022-10-31T07:20:27;98817.31;;;19.37;42.87
40850;BME280;26571;41.610;25.380;2022-10-31T07:22:53;98811.34;;;19.80;40.84
40850;BME280;26571;41.610;25.380;2022-10-31T07:25:18;98801.09;;;20.02;40.37
40850;BME280;26571;41.610;25.380;2022-10-31T07:27:44;98806.19;;;20.28;39.91
40850;BME280;26571;41.610;25.380;2022-10-31T07:30:11;98815.88;;;20.54;39.07
40850;BME280;26571;41.610;25.380;2022-10-31T07:32:41;98803.41;;;20.85;38.48
40850;BME280;26571;41.610;25.380;2022-10-31T07:35:08;98782.44;;;21.00;38.19
40850;BME280;26571;41.610;25.380;2022-10-31T07:37:34;98809.75;;;21.39;37.14
40850;BME280;26571;41.610;25.380;2022-10-31T07:39:59;98808.72;;;21.40;37.04
40850;BME280;26571;41.610;25.380;2022-10-31T07:42:24;98807.81;;;21.58;36.69
40850;BME280;26571;41.610;25.380;2022-10-31T07:44:50;98813.44;;;21.68;36.78
40850;BME280;26571;41.610;25.380;2022-10-31T07:47:15;98808.88;;;21.99;36.52
40850;BME280;26571;41.610;25.380;2022-10-31T07:49:41;98807.75;;;22.30;35.63
40850;BME280;26571;41.610;25.380;2022-10-31T07:52:06;98801.81;;;22.51;35.05
40850;BME280;26571;41.610;25.380;2022-10-31T07:54:31;98797.94;;;22.70;34.92
40850;BME280;26571;41.610;25.380;2022-10-31T07:56:57;98804.56;;;22.80;34.79
40850;BME280;26571;41.610;25.380;2022-10-31T07:59:22;98795.00;;;22.84;34.29
40850;BME280;26571;41.610;25.380;2022-10-31T08:01:47;98797.09;;;22.82;34.49
40850;BME280;26571;41.610;25.380;2022-10-31T08:04:13;98795.03;;;22.60;34.49
40850;BME280;26571;41.610;25.380;2022-10-31T08:06:38;98807.44;;;22.38;34.74
40850;BME280;26571;41.610;25.380;2022-10-31T08:09:04;98804.72;;;22.26;36.04
40850;BME280;26571;41.610;25.380;2022-10-31T08:11:29;98804.00;;;22.42;35.20
40850;BME280;26571;41.610;25.380;2022-10-31T08:13:54;98792.69;;;22.52;34.29
40850;BME280;26571;41.610;25.380;2022-10-31T08:16:20;98792.91;;;22.62;34.32
40850;BME280;26571;41.610;25.380;2022-10-31T08:18:45;98794.78;;;22.62;34.04
40850;BME280;26571;41.610;25.380;2022-10-31T08:21:11;98797.38;;;22.45;34.61
40850;BME280;26571;41.610;25.380;2022-10-31T08:23:36;98799.00;;;22.46;34.36
40850;BME280;26571;41.610;25.380;2022-10-31T08:26:01;98802.06;;;22.38;34.70
40850;BME280;26571;41.610;25.380;2022-10-31T08:28:27;98801.56;;;22.41;34.68
40850;BME280;26571;41.610;25.380;2022-10-31T08:30:52;98801.81;;;22.51;35.24
40850;BME280;26571;41.610;25.380;2022-10-31T08:33:18;98798.28;;;22.62;34.21
40850;BME280;26571;41.610;25.380;2022-10-31T08:35:44;98798.06;;;22.52;34.21
40850;BME280;26571;41.610;25.380;2022-10-31T08:38:11;98794.47;;;22.47;34.67
40850;BME280;26571;41.610;25.380;2022-10-31T08:40:37;98793.41;;;22.59;35.36
40850;BME280;26571;41.610;25.380;2022-10-31T08:43:05;98785.94;;;22.61;34.64
40850;BME280;26571;41.610;25.380;2022-10-31T08:45:32;98802.72;;;22.80;34.59
40850;BME280;26571;41.610;25.380;2022-10-31T08:48:00;98806.22;;;22.92;34.10
40850;BME280;26571;41.610;25.380;2022-10-31T08:50:26;98796.16;;;22.88;34.54
40850;BME280;26571;41.610;25.380;2022-10-31T08:52:51;98801.47;;;23.11;34.62
40850;BME280;26571;41.610;25.380;2022-10-31T08:55:17;98802.91;;;23.14;34.01
40850;BME280;26571;41.610;25.380;2022-10-31T08:57:42;98797.63;;;23.19;34.15
40850;BME280;26571;41.610;25.380;2022-10-31T09:00:09;98807.44;;;23.42;35.07
40850;BME280;26571;41.610;25.380;2022-10-31T09:02:34;98803.41;;;23.56;34.77
40850;BME280;26571;41.610;25.380;2022-10-31T09:05:00;98797.03;;;23.74;33.98
40850;BME280;26571;41.610;25.380;2022-10-31T09:07:25;98804.38;;;23.95;33.47
40850;BME280;26571;41.610;25.380;2022-10-31T09:09:51;98801.72;;;24.12;34.15
40850;BME280;26571;41.610;25.380;2022-10-31T09:12:16;98791.84;;;24.18;33.49
40850;BME280;26571;41.610;25.380;2022-10-31T09:14:42;98804.63;;;24.28;32.59
40850;BME280;26571;41.610;25.380;2022-10-31T09:17:07;98806.34;;;24.34;32.76
40850;BME280;26571;41.610;25.380;2022-10-31T09:19:32;98803.41;;;24.52;33.58
40850;BME280;26571;41.610;25.380;2022-10-31T09:21:58;98792.84;;;24.67;33.51
40850;BME280;26571;41.610;25.380;2022-10-31T09:24:23;98788.81;;;24.87;32.81
40850;BME280;26571;41.610;25.380;2022-10-31T09:26:48;98794.66;;;25.06;32.86
40850;BME280;26571;41.610;25.380;2022-10-31T09:29:14;98787.91;;;25.25;32.46
40850;BME280;26571;41.610;25.380;2022-10-31T09:31:39;98792.59;;;25.35;32.06
40850;BME280;26571;41.610;25.380;2022-10-31T09:34:05;98792.66;;;25.40;31.31
40850;BME280;26571;41.610;25.380;2022-10-31T09:36:30;98782.13;;;25.11;32.29
40850;BME280;26571;41.610;25.380;2022-10-31T09:38:58;98783.59;;;25.24;32.05
40850;BME280;26571;41.610;25.380;2022-10-31T09:47:05;98782.13;;;25.65;32.40
40850;BME280;26571;41.610;25.380;2022-10-31T09:52:40;98775.31;;;25.85;31.39
40850;BME280;26571;41.610;25.380;2022-10-31T09:55:15;98769.91;;;25.85;32.12
40850;BME280;26571;41.610;25.380;2022-10-31T09:57:42;98770.53;;;25.92;31.66
40850;BME280;26571;41.610;25.380;2022-10-31T10:00:18;98769.25;;;26.04;31.24
40850;BME280;26571;41.610;25.380;2022-10-31T10:05:58;98757.34;;;26.00;31.43
40850;BME280;26571;41.610;25.380;2022-10-31T10:08:30;98764.75;;;26.15;31.38
40850;BME280;26571;41.610;25.380;2022-10-31T10:11:03;98755.59;;;26.16;31.53
40850;BME280;26571;41.610;25.380;2022-10-31T10:19:07;98745.25;;;26.03;31.26
40850;BME280;26571;41.610;25.380;2022-10-31T10:27:17;98733.94;;;26.06;31.11
40850;BME280;26571;41.610;25.380;2022-10-31T10:30:04;98741.53;;;26.14;31.50
40850;BME280;26571;41.610;25.380;2022-10-31T10:32:51;98740.78;;;26.24;31.05
40850;BME280;26571;41.610;25.380;2022-10-31T10:37:50;98730.94;;;26.45;30.84
40850;BME280;26571;41.610;25.380;2022-10-31T10:40:24;98758.50;;;26.47;30.86
40850;BME280;26571;41.610;25.380;2022-10-31T10:43:22;98733.44;;;26.57;30.80
40850;BME280;26571;41.610;25.380;2022-10-31T10:46:19;98697.19;;;26.42;30.36
40850;BME280;26571;41.610;25.380;2022-10-31T11:00:39;98721.13;;;26.34;31.00
40850;BME280;26571;41.610;25.380;2022-10-31T11:03:05;98731.41;;;26.32;30.98
40850;BME280;26571;41.610;25.380;2022-10-31T11:05:52;98707.59;;;26.23;30.60
40850;BME280;26571;41.610;25.380;2022-10-31T11:08:29;98718.63;;;26.17;31.46
40850;BME280;26571;41.610;25.380;2022-10-31T11:13:26;98718.63;;;25.80;30.92
40850;BME280;26571;41.610;25.380;2022-10-31T11:18:25;98674.13;;;25.18;32.01
40850;BME280;26571;41.610;25.380;2022-10-31T11:20:54;98710.72;;;25.41;31.93
40850;BME280;26571;41.610;25.380;2022-10-31T11:23:22;98713.97;;;25.43;31.66
40850;BME280;26571;41.610;25.380;2022-10-31T11:26:37;98710.63;;;25.31;32.02
40850;BME280;26571;41.610;25.380;2022-10-31T11:28:43;98713.00;;;25.22;32.48
40850;BME280;26571;41.610;25.380;2022-10-31T11:31:12;98707.84;;;25.20;32.12
40850;BME280;26571;41.610;25.380;2022-10-31T11:33:47;98719.78;;;25.30;31.96
40850;BME280;26571;41.610;25.380;2022-10-31T11:36:35;98716.09;;;25.41;32.20
40850;BME280;26571;41.610;25.380;2022-10-31T11:39:03;98701.59;;;25.42;31.71
40850;BME280;26571;41.610;25.380;2022-10-31T11:41:34;98703.28;;;25.53;30.61
40850;BME280;26571;41.610;25.380;2022-10-31T11:44:14;98704.88;;;25.49;31.22
40850;BME280;26571;41.610;25.380;2022-10-31T11:46:56;98703.06;;;25.27;31.69
40850;BME280;26571;41.610;25.380;2022-10-31T11:49:53;98697.75;;;25.11;32.28
40850;BME280;26571;41.610;25.380;2022-10-31T11:54:59;98702.78;;;25.02;32.36
40850;BME280;26571;41.610;25.380;2022-10-31T11:57:29;98698.84;;;25.10;31.79
40850;BME280;26571;41.610;25.380;2022-10-31T11:59:58;98696.41;;;25.08;32.09
40850;BME280;26571;41.610;25.380;2022-10-31T12:02:24;98694.84;;;25.12;32.49
40850;BME280;26571;41.610;25.380;2022-10-31T12:04:58;98699.47;;;25.17;32.38
40850;BME280;26571;41.610;25.380;2022-10-31T12:07:26;98689.78;;;25.21;32.52
40850;BME280;26571;41.610;25.380;2022-10-31T12:09:52;98688.25;;;25.03;31.44
40850;BME280;26571;41.610;25.380;2022-10-31T12:17:29;98689.56;;;24.52;32.55
40850;BME280;26571;41.610;25.380;2022-10-31T12:20:23;98684.28;;;24.40;32.60
40850;BME280;26571;41.610;25.380;2022-10-31T12:23:03;98700.63;;;24.55;33.28
40850;BME280;26571;41.610;25.380;2022-10-31T12:25:37;98697.69;;;24.57;33.16
40850;BME280;26571;41.610;25.380;2022-10-31T12:36:43;98691.31;;;24.24;33.21
40850;BME280;26571;41.610;25.380;2022-10-31T12:39:55;98701.41;;;24.34;33.12
40850;BME280;26571;41.610;25.380;2022-10-31T12:42:57;98692.59;;;24.21;33.18
40850;BME280;26571;41.610;25.380;2022-10-31T13:04:42;98695.16;;;24.11;33.70
40850;BME280;26571;41.610;25.380;2022-10-31T13:07:36;98700.31;;;24.13;33.78
40850;BME280;26571;41.610;25.380;2022-10-31T13:12:25;98696.44;;;24.25;34.07
40850;BME280;26571;41.610;25.380;2022-10-31T13:15:05;98701.25;;;24.23;33.57
40850;BME280;26571;41.610;25.380;2022-10-31T13:17:35;98693.88;;;24.14;33.98
40850;BME280;26571;41.610;25.380;2022-10-31T13:22:44;98700.81;;;23.93;34.19
40850;BME280;26571;41.610;25.380;2022-10-31T13:25:15;98700.09;;;23.81;34.40
40850;BME280;26571;41.610;25.380;2022-10-31T13:30:23;98697.19;;;23.82;34.36
40850;BME280;26571;41.610;25.380;2022-10-31T13:33:05;98707.16;;;23.87;34.41
40850;BME280;26571;41.610;25.380;2022-10-31T13:38:42;98700.69;;;23.83;34.35
40850;BME280;26571;41.610;25.380;2022-10-31T13:44:01;98703.44;;;23.71;34.95
40850;BME280;26571;41.610;25.380;2022-10-31T13:46:35;98703.59;;;23.64;34.91
40850;BME280;26571;41.610;25.380;2022-10-31T13:49:01;98701.38;;;23.61;34.93
40850;BME280;26571;41.610;25.380;2022-10-31T13:51:29;98698.84;;;23.55;35.24
40850;BME280;26571;41.610;25.380;2022-10-31T13:56:23;98705.53;;;23.52;35.28
40850;BME280;26571;41.610;25.380;2022-10-31T14:01:34;98702.19;;;23.45;35.48
40850;BME280;26571;41.610;25.380;2022-10-31T14:11:56;98710.78;;;23.30;35.54
40850;BME280;26571;41.610;25.380;2022-10-31T14:14:29;98700.75;;;23.09;35.83
40850;BME280;26571;41.610;25.380;2022-10-31T14:16:57;98708.72;;;23.20;35.63
40850;BME280;26571;41.610;25.380;2022-10-31T14:19:24;98693.88;;;23.01;35.39
40850;BME280;26571;41.610;25.380;2022-10-31T14:21:53;98710.69;;;23.08;35.76
40850;BME280;26571;41.610;25.380;2022-10-31T14:29:20;98714.59;;;22.89;36.24
40850;BME280;26571;41.610;25.380;2022-10-31T14:34:34;98705.63;;;22.71;36.53
40850;BME280;26571;41.610;25.380;2022-10-31T14:45:32;98715.72;;;22.41;37.20
40850;BME280;26571;41.610;25.380;2022-10-31T14:50:56;98713.19;;;22.23;38.03
40850;BME280;26571;41.610;25.380;2022-10-31T14:53:38;98697.91;;;22.00;38.46
40850;BME280;26571;41.610;25.380;2022-10-31T14:56:10;98715.03;;;22.10;38.26
40850;BME280;26571;41.610;25.380;2022-10-31T14:58:41;98713.19;;;21.99;38.57
40850;BME280;26571;41.610;25.380;2022-10-31T15:01:19;98714.94;;;21.93;38.46
40850;BME280;26571;41.610;25.380;2022-10-31T15:03:47;98715.03;;;21.87;38.62
40850;BME280;26571;41.610;25.380;2022-10-31T15:06:14;98732.50;;;21.78;39.28
40850;BME280;26571;41.610;25.380;2022-10-31T15:08:45;98715.34;;;21.67;39.86
40850;BME280;26571;41.610;25.380;2022-10-31T15:11:23;98717.34;;;21.60;40.06
40850;BME280;26571;41.610;25.380;2022-10-31T15:13:54;98726.19;;;21.49;40.91
40850;BME280;26571;41.610;25.380;2022-10-31T15:16:34;98697.53;;;21.19;41.10
40850;BME280;26571;41.610;25.380;2022-10-31T15:19:13;98707.50;;;21.12;41.45
40850;BME280;26571;41.610;25.380;2022-10-31T15:21:43;98708.06;;;21.02;41.66
40850;BME280;26571;41.610;25.380;2022-10-31T15:24:13;98723.91;;;21.04;42.08
40850;BME280;26571;41.610;25.380;2022-10-31T15:26:44;98724.94;;;21.03;41.82
40850;BME280;26571;41.610;25.380;2022-10-31T15:29:19;98732.19;;;20.84;42.43
40850;BME280;26571;41.610;25.380;2022-10-31T15:34:42;98730.19;;;20.61;42.99
40850;BME280;26571;41.610;25.380;2022-10-31T15:37:10;98731.16;;;20.48;43.36
40850;BME280;26571;41.610;25.380;2022-10-31T15:39:36;98750.44;;;20.32;43.83
40850;BME280;26571;41.610;25.380;2022-10-31T15:42:02;98730.53;;;20.28;43.41
40850;BME280;26571;41.610;25.380;2022-10-31T15:44:36;98699.00;;;19.93;43.54
40850;BME280;26571;41.610;25.380;2022-10-31T15:47:12;98740.31;;;20.16;44.02
40850;BME280;26571;41.610;25.380;2022-10-31T15:49:53;98743.41;;;20.12;43.86
40850;BME280;26571;41.610;25.380;2022-10-31T15:52:39;98747.09;;;19.93;44.47